Scf Explorer — WDE2863 — position and weather

sailwx.info

Track history (hours):
 
Tides and Currents Weather Stations Pressure Air Temp Water Temp Dewpoint Dewpoint Depression Visibility Wind Speed Wind Dir Waves Ship Positions

Scf Explorer

Owner: SCF Waxler Marine LLC, St Rose, LA. More information available from US FCC via Universal Licensing System and Coast Guard Vessel Documentation Center.

Last reported at 2016-Apr-29 18:11 UTC. Time now 2016-May-26 08:46 UTC.
Position N 29°46' W 095°07'.
Warning: this ship's position is 26 days out of date.

Length 35 m; draft 2.3 m.

Type: Ship (hazmat cat B). MMSI: 367330620.

Date/timePositionNaut miles runAvg speedWind from/ knotsBaromVisibWave heightAir tempDewpointWater temp
2016-Apr-29 18:11N 29°46' W 095°07'0 0.0
2016-Apr-29 17:23N 29°46' W 095°07'0 0.0
2016-Apr-29 16:30N 29°46' W 095°07'0 0.0
2016-Apr-27 12:31N 29°46' W 095°07'0 0.0
2016-Apr-26 17:32N 29°46' W 095°06'2 2.4
2016-Apr-26 16:33N 29°44' W 095°08'2 2.1
2016-Apr-26 15:33N 29°45' W 095°10'0 0.0
2016-Apr-26 14:33N 29°45' W 095°10'0 0.0
2016-Apr-26 13:33N 29°45' W 095°10'0 0.0
2016-Apr-26 12:33N 29°45' W 095°10'0 0.0
2016-Apr-26 11:33N 29°45' W 095°10'0 0.0
2016-Apr-26 10:33N 29°45' W 095°10'0 0.0
2016-Apr-26 09:33N 29°45' W 095°10'0 0.0
2016-Apr-26 08:33N 29°45' W 095°10'0 0.3
2016-Apr-26 07:11N 29°45' W 095°10'5 6.2
2016-Apr-26 06:24N 29°46' W 095°05'5 6.4
2016-Apr-26 05:33N 29°42' W 095°00'7 7.1
2016-Apr-26 04:33N 29°36' W 094°56'60 4.3
2016-Apr-25 14:24N 29°57' W 093°52'10 0.7
2016-Apr-24 23:15N 30°02' W 094°02'0 0.0
2016-Apr-24 13:33N 30°02' W 094°02'0 0.0
2016-Apr-24 10:30N 30°02' W 094°02'0 0.0
2016-Apr-24 09:31N 30°02' W 094°02'0 0.0
2016-Apr-24 08:33N 30°02' W 094°02'0 0.1
2016-Apr-24 07:29N 30°02' W 094°02'1 0.8
2016-Apr-24 06:29N 30°03' W 094°02'2 2.0
2016-Apr-24 05:33N 30°04' W 094°03'0 0.0
2016-Apr-23 14:32N 30°04' W 094°03'0 0.0
2016-Apr-23 13:24N 30°04' W 094°03'0 0.0
2016-Apr-23 12:33N 30°04' W 094°03'0 0.0
2016-Apr-23 03:19N 30°04' W 094°03'0 0.0
2016-Apr-22 14:21N 30°04' W 094°03'0 0.0
2016-Apr-22 13:33N 30°04' W 094°03'0 0.0
2016-Apr-22 12:33N 30°04' W 094°03'0 0.0
2016-Apr-22 09:33N 30°04' W 094°03'0 0.0
2016-Apr-22 08:32N 30°04' W 094°03'0 0.0
2016-Apr-22 07:33N 30°04' W 094°03'0 0.0
2016-Apr-22 06:27N 30°04' W 094°03'0 0.0
2016-Apr-22 05:33N 30°04' W 094°03'0 0.0
2016-Apr-22 02:05N 30°04' W 094°03'0 0.0
2016-Apr-21 20:30N 30°04' W 094°03'0 0.0
2016-Apr-21 19:33N 30°04' W 094°03'0 0.0
2016-Apr-21 13:24N 30°04' W 094°03'10 1.6
2016-Apr-21 07:26N 29°59' W 093°54'60 4.3
2016-Apr-20 17:32N 29°25' W 094°49'8 8.1
2016-Apr-20 16:33N 29°32' W 094°54'8 7.7
2016-Apr-20 15:33N 29°38' W 094°58'8 7.8
2016-Apr-20 14:33N 29°44' W 095°04'6 5.9
2016-Apr-20 13:33N 29°45' W 095°10'  
Track history (hours):
 
Tides and Currents Weather Stations Pressure Air Temp Water Temp Dewpoint Dewpoint Depression Visibility Wind Speed Wind Dir Waves Ship Positions

Scf Explorer

Owner: SCF Waxler Marine LLC, St Rose, LA. More information available from US FCC via Universal Licensing System and Coast Guard Vessel Documentation Center.

Last reported at 2016-Apr-29 18:11 UTC. Time now 2016-May-26 08:46 UTC.
Position N 29°46' W 095°07'.
Warning: this ship's position is 26 days out of date.

Length 35 m; draft 2.3 m.

Type: Ship (hazmat cat B). MMSI: 367330620.

Date/timePositionNaut miles runAvg speedWind from/ knotsBaromVisibWave heightAir tempDewpointWater temp
2016-Apr-29 18:11N 29°46' W 095°07'0 0.0
2016-Apr-29 17:23N 29°46' W 095°07'0 0.0
2016-Apr-29 16:30N 29°46' W 095°07'0 0.0
2016-Apr-27 12:31N 29°46' W 095°07'0 0.0
2016-Apr-26 17:32N 29°46' W 095°06'2 2.4
2016-Apr-26 16:33N 29°44' W 095°08'2 2.1
2016-Apr-26 15:33N 29°45' W 095°10'0 0.0
2016-Apr-26 14:33N 29°45' W 095°10'0 0.0
2016-Apr-26 13:33N 29°45' W 095°10'0 0.0
2016-Apr-26 12:33N 29°45' W 095°10'0 0.0
2016-Apr-26 11:33N 29°45' W 095°10'0 0.0
2016-Apr-26 10:33N 29°45' W 095°10'0 0.0
2016-Apr-26 09:33N 29°45' W 095°10'0 0.0
2016-Apr-26 08:33N 29°45' W 095°10'0 0.3
2016-Apr-26 07:11N 29°45' W 095°10'5 6.2
2016-Apr-26 06:24N 29°46' W 095°05'5 6.4
2016-Apr-26 05:33N 29°42' W 095°00'7 7.1
2016-Apr-26 04:33N 29°36' W 094°56'60 4.3
2016-Apr-25 14:24N 29°57' W 093°52'10 0.7
2016-Apr-24 23:15N 30°02' W 094°02'0 0.0
2016-Apr-24 13:33N 30°02' W 094°02'0 0.0
2016-Apr-24 10:30N 30°02' W 094°02'0 0.0
2016-Apr-24 09:31N 30°02' W 094°02'0 0.0
2016-Apr-24 08:33N 30°02' W 094°02'0 0.1
2016-Apr-24 07:29N 30°02' W 094°02'1 0.8
2016-Apr-24 06:29N 30°03' W 094°02'2 2.0
2016-Apr-24 05:33N 30°04' W 094°03'0 0.0
2016-Apr-23 14:32N 30°04' W 094°03'0 0.0
2016-Apr-23 13:24N 30°04' W 094°03'0 0.0
2016-Apr-23 12:33N 30°04' W 094°03'0 0.0
2016-Apr-23 03:19N 30°04' W 094°03'0 0.0
2016-Apr-22 14:21N 30°04' W 094°03'0 0.0
2016-Apr-22 13:33N 30°04' W 094°03'0 0.0
2016-Apr-22 12:33N 30°04' W 094°03'0 0.0
2016-Apr-22 09:33N 30°04' W 094°03'0 0.0
2016-Apr-22 08:32N 30°04' W 094°03'0 0.0
2016-Apr-22 07:33N 30°04' W 094°03'0 0.0
2016-Apr-22 06:27N 30°04' W 094°03'0 0.0
2016-Apr-22 05:33N 30°04' W 094°03'0 0.0
2016-Apr-22 02:05N 30°04' W 094°03'0 0.0
2016-Apr-21 20:30N 30°04' W 094°03'0 0.0
2016-Apr-21 19:33N 30°04' W 094°03'0 0.0
2016-Apr-21 13:24N 30°04' W 094°03'10 1.6
2016-Apr-21 07:26N 29°59' W 093°54'60 4.3
2016-Apr-20 17:32N 29°25' W 094°49'8 8.1
2016-Apr-20 16:33N 29°32' W 094°54'8 7.7
2016-Apr-20 15:33N 29°38' W 094°58'8 7.8
2016-Apr-20 14:33N 29°44' W 095°04'6 5.9
2016-Apr-20 13:33N 29°45' W 095°10'  

Dump ship's entire track history